Terminal Aerodrome Forecast
Issued by NWS

Current Version | Previous Version | Text Only | Print | Product List | Glossary On
Versions: 1 2 3 4 5 6 7 8 9 10 11 12 13 14 15 16 17 18 19 20 21 22 23 24 25 26
000
FTUS42 KTAE 041200 AAA
TAFECP
TAF AMD
KECP 041203Z 0412/0512 13006KT 1/4SM FG VV002
     FM041500 13008KT 3SM BR OVC004
     FM041700 17011G17KT P6SM SCT015 BKN025
     FM050100 17007KT 3SM BR BKN006
     FM050800 16004KT 1/2SM FG BKN002=

USA.gov is the U.S. government's official web portal to all federal, state and local government web resources and services.